createdAt,value
2018-06-01T00:01:12.334Z,84.60
2018-06-01T00:03:43.410Z,84.90
2018-06-01T00:06:11.713Z,84.90
2018-06-01T00:08:40.023Z,85.40
2018-06-01T00:11:08.421Z,85.70
2018-06-01T00:13:36.757Z,86.20
2018-06-01T00:16:05.818Z,85.80
2018-06-01T00:18:34.150Z,85.80
2018-06-01T00:21:04.011Z,85.70
2018-06-01T00:23:33.408Z,85.60
2018-06-01T00:26:01.709Z,85.60
2018-06-01T00:28:30.144Z,85.40
2018-06-01T00:30:58.478Z,85.80
2018-06-01T00:33:26.821Z,85.50
2018-06-01T00:35:55.162Z,86.40
2018-06-01T00:38:24.237Z,86.80
2018-06-01T00:40:52.532Z,86.80
2018-06-01T00:43:20.974Z,86.60
2018-06-01T00:45:49.359Z,86.70
2018-06-01T00:48:17.653Z,86.80
2018-06-01T00:50:46.185Z,86.50
2018-06-01T00:53:14.493Z,86.50
2018-06-01T00:55:43.026Z,86.40
2018-06-01T00:58:11.389Z,87.20
2018-06-01T01:00:39.730Z,87.10
2018-06-01T01:03:08.062Z,86.30
2018-06-01T01:05:36.392Z,86.20
2018-06-01T01:08:06.197Z,85.80
2018-06-01T01:10:36.261Z,85.80
2018-06-01T01:13:04.562Z,85.60
2018-06-01T01:15:32.888Z,85.50
2018-06-01T01:18:01.280Z,85.10
2018-06-01T01:20:30.475Z,85.20
2018-06-01T01:22:58.832Z,85.20
2018-06-01T01:25:27.148Z,85.10
2018-06-01T01:27:55.453Z,84.90
2018-06-01T01:30:23.786Z,84.70
2018-06-01T01:32:52.106Z,85.30
2018-06-01T01:35:20.458Z,85.10
2018-06-01T01:37:48.765Z,84.40
2018-06-01T01:40:17.117Z,83.90
2018-06-01T01:42:45.474Z,83.50
2018-06-01T01:45:13.858Z,83.20
2018-06-01T01:47:43.097Z,83.60
2018-06-01T01:50:12.140Z,83.60
2018-06-01T01:52:41.412Z,84.40
2018-06-01T01:55:09.757Z,84.40
2018-06-01T01:57:38.091Z,84.60
2018-06-01T02:00:06.484Z,84.80
2018-06-01T02:02:34.788Z,85.10
2018-06-01T02:05:03.241Z,85.50
2018-06-01T02:07:32.338Z,85.50
2018-06-01T02:10:00.777Z,85.50
2018-06-01T02:12:29.962Z,86.50
2018-06-01T02:14:59.365Z,86.70
2018-06-01T02:17:27.663Z,86.60
2018-06-01T02:19:55.985Z,86.60
2018-06-01T02:22:24.386Z,86.30
2018-06-01T02:24:52.894Z,85.50
2018-06-01T02:27:21.185Z,85.60
2018-06-01T02:29:49.506Z,85.40
2018-06-01T02:32:17.991Z,85.10
2018-06-01T02:34:46.382Z,85.60
2018-06-01T02:37:14.949Z,86.30
2018-06-01T02:39:44.164Z,86.30
2018-06-01T02:42:13.473Z,86.30
2018-06-01T02:44:41.965Z,86.20
2018-06-01T02:47:11.785Z,87.20
2018-06-01T02:49:40.205Z,87.10
2018-06-01T02:52:08.498Z,87.60
2018-06-01T02:54:36.946Z,87.90
2018-06-01T02:57:06.046Z,86.80
2018-06-01T02:59:35.875Z,86.50
2018-06-01T03:02:04.174Z,86.50
2018-06-01T03:04:32.506Z,86.10
2018-06-01T03:07:16.652Z,86.20
2018-06-01T03:09:45.004Z,86.60
2018-06-01T03:12:13.389Z,85.80
2018-06-01T03:14:42.529Z,85.60
2018-06-01T03:17:10.878Z,85.90
2018-06-01T03:19:39.164Z,86.40
2018-06-01T03:22:07.457Z,86.60
2018-06-01T03:24:35.786Z,86.70
2018-06-01T03:27:04.406Z,86.60
2018-06-01T03:29:32.804Z,86.40
2018-06-01T03:32:01.157Z,86.80
2018-06-01T03:34:29.565Z,86.80
2018-06-01T03:36:57.912Z,86.50
2018-06-01T03:39:26.516Z,86.50
2018-06-01T03:41:54.816Z,86.10
2018-06-01T03:44:23.109Z,85.20
2018-06-01T03:46:51.440Z,82.40
2018-06-01T03:49:19.760Z,80.10
2018-06-01T03:51:48.357Z,80.10
2018-06-01T03:54:16.705Z,79.70
2018-06-01T03:56:45.347Z,79.10
2018-06-01T03:59:13.899Z,80.00
2018-06-01T04:01:42.262Z,81.00
2018-06-01T04:04:11.386Z,82.60
2018-06-01T04:06:39.885Z,82.60
2018-06-01T04:09:08.209Z,83.70
2018-06-01T04:11:36.686Z,84.00
2018-06-01T04:14:04.977Z,83.50
2018-06-01T04:16:33.392Z,83.30
2018-06-01T04:19:02.000Z,83.50
2018-06-01T04:21:31.543Z,82.50
2018-06-01T04:23:59.950Z,82.40
2018-06-01T04:26:28.357Z,82.20
2018-06-01T04:28:56.693Z,82.70
2018-06-01T04:31:25.778Z,81.70
2018-06-01T04:33:54.169Z,81.70
2018-06-01T04:36:22.594Z,82.30
2018-06-01T04:38:50.895Z,82.40
2018-06-01T04:41:19.307Z,82.30
2018-06-01T04:43:48.226Z,82.20
2018-06-01T04:46:17.624Z,82.90
2018-06-01T04:48:47.331Z,82.90
2018-06-01T04:51:15.769Z,81.70
2018-06-01T04:53:44.198Z,82.20
2018-06-01T04:56:12.654Z,82.30
2018-06-01T04:58:41.813Z,82.10
2018-06-01T05:01:10.109Z,82.00
2018-06-01T05:03:38.437Z,81.80
2018-06-01T05:06:07.634Z,80.80
2018-06-01T05:08:36.042Z,80.80
2018-06-01T05:11:04.441Z,80.10
2018-06-01T05:13:32.844Z,80.10
2018-06-01T05:16:01.173Z,80.20
2018-06-01T05:18:29.858Z,79.70
2018-06-01T05:20:58.174Z,80.40
2018-06-01T05:23:26.469Z,79.80
2018-06-01T05:25:54.796Z,78.80
2018-06-01T05:28:23.859Z,79.30
2018-06-01T05:30:52.193Z,79.30
2018-06-01T05:33:20.598Z,78.50
2018-06-01T05:35:49.085Z,79.10
2018-06-01T05:38:17.530Z,79.70
2018-06-01T05:40:46.133Z,78.40
2018-06-01T05:43:15.022Z,76.80
2018-06-01T05:45:43.716Z,77.40
2018-06-01T05:48:12.072Z,76.10
2018-06-01T05:50:40.552Z,76.70
2018-06-01T05:53:08.940Z,76.30
2018-06-01T05:55:37.445Z,75.00
2018-06-01T05:58:05.852Z,73.40
2018-06-01T06:00:34.177Z,73.10
2018-06-01T06:03:02.465Z,72.90
2018-06-01T06:05:30.943Z,72.70
2018-06-01T06:07:59.277Z,71.60
2018-06-01T06:10:27.806Z,72.20
2018-06-01T06:12:56.903Z,72.00
2018-06-01T06:15:25.208Z,72.00
2018-06-01T06:17:53.534Z,70.50
2018-06-01T06:20:21.974Z,71.30
2018-06-01T06:22:50.340Z,69.20
2018-06-01T06:25:18.688Z,70.60
2018-06-01T06:27:47.025Z,71.90
2018-06-01T06:30:16.145Z,72.10
2018-06-01T06:32:44.502Z,71.90
2018-06-01T06:35:13.289Z,71.70
2018-06-01T06:37:42.407Z,71.50
2018-06-01T06:40:11.521Z,70.50
2018-06-01T06:42:40.634Z,70.00
2018-06-01T06:45:09.030Z,69.90
2018-06-01T06:47:37.325Z,70.10
2018-06-01T06:50:05.662Z,70.20
2018-06-01T06:52:34.756Z,69.90
2018-06-01T06:55:03.088Z,69.90
2018-06-01T06:57:32.189Z,68.40
2018-06-01T07:00:00.497Z,68.40
2018-06-01T07:02:28.853Z,68.30
2018-06-01T07:04:57.146Z,67.40
2018-06-01T07:07:25.498Z,68.00
2018-06-01T07:09:53.820Z,67.20
2018-06-01T07:12:22.907Z,66.80
2018-06-01T07:14:51.239Z,66.80
2018-06-01T07:17:20.333Z,66.40
2018-06-01T07:19:48.739Z,66.30
2018-06-01T07:22:17.049Z,66.40
2018-06-01T07:24:45.345Z,68.30
2018-06-01T07:27:13.688Z,67.40
2018-06-01T07:29:42.802Z,67.10
2018-06-01T07:32:11.900Z,68.20
2018-06-01T07:34:40.280Z,68.20
2018-06-01T07:37:08.620Z,67.00
2018-06-01T07:39:36.915Z,65.80
2018-06-01T07:42:05.210Z,65.20
2018-06-01T07:44:33.536Z,63.20
2018-06-01T07:47:02.646Z,62.90
2018-06-01T07:49:31.760Z,62.50
2018-06-01T07:52:00.126Z,62.40
2018-06-01T07:54:28.414Z,61.10
2018-06-01T07:56:56.757Z,62.60
2018-06-01T07:59:25.154Z,61.00
2018-06-01T08:01:53.457Z,60.30
2018-06-01T08:04:21.865Z,57.80
2018-06-01T08:06:50.245Z,57.70
2018-06-01T08:09:18.581Z,58.30
2018-06-01T08:11:46.972Z,57.60
2018-06-01T08:14:15.302Z,59.90
2018-06-01T08:16:43.753Z,58.90
2018-06-01T08:19:12.067Z,58.50
2018-06-01T08:21:40.401Z,58.70
2018-06-01T08:24:08.734Z,56.70
2018-06-01T08:26:37.026Z,59.20
2018-06-01T08:29:06.117Z,58.40
2018-06-01T08:31:34.414Z,58.40
2018-06-01T08:34:02.744Z,58.60
2018-06-01T08:36:31.798Z,57.50
2018-06-01T08:39:00.175Z,57.50
2018-06-01T08:41:28.529Z,57.40
2018-06-01T08:43:56.881Z,56.50
2018-06-01T08:46:26.020Z,56.70
2018-06-01T08:48:54.368Z,56.70
2018-06-01T08:51:22.756Z,57.10
2018-06-01T08:53:51.087Z,56.60
2018-06-01T08:56:19.388Z,56.60
2018-06-01T08:58:52.994Z,55.40
2018-06-01T09:01:21.309Z,55.40
2018-06-01T09:03:49.709Z,54.80
2018-06-01T09:06:18.054Z,55.10
2018-06-01T09:08:47.423Z,54.00
2018-06-01T09:11:15.854Z,54.00
2018-06-01T09:13:44.510Z,54.60
2018-06-01T09:16:12.897Z,54.30
2018-06-01T09:18:41.967Z,52.60
2018-06-01T09:21:10.525Z,52.60
2018-06-01T09:23:39.684Z,54.00
2018-06-01T09:26:07.977Z,54.00
2018-06-01T09:28:36.371Z,54.10
2018-06-01T09:31:04.705Z,55.30
2018-06-01T09:33:32.997Z,56.80
2018-06-01T09:36:01.409Z,56.10
2018-06-01T09:38:29.724Z,54.80
2018-06-01T09:40:58.335Z,55.60
2018-06-01T09:43:26.634Z,55.00
2018-06-01T09:45:54.939Z,55.00
2018-06-01T09:48:23.338Z,53.90
2018-06-01T09:50:51.624Z,52.50
2018-06-01T09:53:19.947Z,49.40
2018-06-01T09:55:48.273Z,48.50
2018-06-01T09:58:18.169Z,48.20
2018-06-01T10:00:52.199Z,47.80
2018-06-01T10:03:20.524Z,46.20
2018-06-01T10:05:48.856Z,47.40
2018-06-01T10:08:17.926Z,46.70
2018-06-01T10:10:46.233Z,46.70
2018-06-01T10:13:14.574Z,48.10
2018-06-01T10:15:42.923Z,47.50
2018-06-01T10:18:11.353Z,45.60
2018-06-01T10:20:40.476Z,44.20
2018-06-01T10:23:08.863Z,44.20
2018-06-01T10:25:37.235Z,44.40
2018-06-01T10:28:05.560Z,44.60
2018-06-01T10:30:33.871Z,42.30
2018-06-01T10:33:02.184Z,42.50
2018-06-01T10:35:30.604Z,42.50
2018-06-01T10:37:58.998Z,43.30
2018-06-01T10:40:27.326Z,45.60
2018-06-01T10:42:56.402Z,46.30
2018-06-01T10:45:24.725Z,46.50
2018-06-01T10:47:53.070Z,46.20
2018-06-01T10:50:21.436Z,45.80
2018-06-01T10:52:49.836Z,45.10
2018-06-01T10:55:18.126Z,44.20
2018-06-01T10:57:46.417Z,44.60
2018-06-01T11:00:14.774Z,43.50
2018-06-01T11:02:43.866Z,43.10
2018-06-01T11:05:12.250Z,43.10
2018-06-01T11:07:40.540Z,41.70
2018-06-01T11:10:08.997Z,39.50
2018-06-01T11:12:38.093Z,38.90
2018-06-01T11:15:06.489Z,38.40
2018-06-01T11:17:34.986Z,36.90
2018-06-01T11:20:03.272Z,38.20
2018-06-01T11:22:31.602Z,37.50
2018-06-01T11:25:00.013Z,36.20
2018-06-01T11:27:28.410Z,35.30
2018-06-01T11:29:56.698Z,35.10
2018-06-01T11:32:25.104Z,35.80
2018-06-01T11:34:53.389Z,36.60
2018-06-01T11:37:21.709Z,36.70
2018-06-01T11:39:50.130Z,38.60
2018-06-01T11:42:18.429Z,37.70
2018-06-01T11:44:46.717Z,40.10
2018-06-01T11:47:15.174Z,39.50
2018-06-01T11:49:43.520Z,38.70
2018-06-01T11:52:11.885Z,36.10
2018-06-01T11:54:40.948Z,36.20
2018-06-01T11:57:09.357Z,36.10
2018-06-01T11:59:37.657Z,35.10
2018-06-01T12:02:05.937Z,36.30
2018-06-01T12:04:34.369Z,38.40
2018-06-01T12:07:02.884Z,37.40
2018-06-01T12:09:31.173Z,37.60
2018-06-01T12:11:59.471Z,37.70
2018-06-01T12:14:27.793Z,37.30
2018-06-01T12:16:56.085Z,40.30
2018-06-01T12:19:24.379Z,41.80
2018-06-01T12:21:52.728Z,39.10
2018-06-01T12:24:21.780Z,37.60
2018-06-01T12:26:50.211Z,37.60
2018-06-01T12:29:18.602Z,36.60
2018-06-01T12:31:47.602Z,35.40
2018-06-01T12:34:16.029Z,35.30
2018-06-01T12:36:44.357Z,36.10
2018-06-01T12:39:12.995Z,34.30
2018-06-01T12:41:42.174Z,34.40
2018-06-01T12:44:11.401Z,33.60
2018-06-01T12:46:39.745Z,33.60
2018-06-01T12:49:08.845Z,37.40
2018-06-01T12:51:37.138Z,37.40
2018-06-01T12:54:05.445Z,37.90
2018-06-01T12:56:34.557Z,41.60
2018-06-01T12:59:02.949Z,41.10
2018-06-01T13:01:31.354Z,41.00
2018-06-01T13:03:59.638Z,41.80
2018-06-01T13:06:28.048Z,41.80
2018-06-01T13:08:56.360Z,43.30
2018-06-01T13:11:24.756Z,45.20
2018-06-01T13:13:53.072Z,45.60
2018-06-01T13:16:21.375Z,44.60
2018-06-01T13:18:50.017Z,44.90
2018-06-01T13:21:19.195Z,45.50
2018-06-01T13:23:47.568Z,45.50
2018-06-01T13:26:17.107Z,45.80
2018-06-01T13:28:45.438Z,45.20
2018-06-01T13:31:14.062Z,46.20
2018-06-01T13:33:43.352Z,45.10
2018-06-01T13:36:11.708Z,45.10
2018-06-01T13:38:40.800Z,47.10
2018-06-01T13:41:09.589Z,47.00
2018-06-01T13:43:37.874Z,47.70
2018-06-01T13:46:06.503Z,47.20
2018-06-01T13:48:35.864Z,47.40
2018-06-01T13:51:04.248Z,48.90
2018-06-01T13:53:32.569Z,48.40
2018-06-01T13:56:00.864Z,47.90
2018-06-01T13:58:29.204Z,47.70
2018-06-01T14:00:58.266Z,47.40
2018-06-01T14:03:26.604Z,47.40
2018-06-01T14:05:54.962Z,48.40
2018-06-01T14:08:23.274Z,48.80
2018-06-01T14:10:51.566Z,49.90
2018-06-01T14:13:19.989Z,50.90
2018-06-01T14:15:48.309Z,51.40
2018-06-01T14:18:16.644Z,51.70
2018-06-01T14:20:45.345Z,51.70
2018-06-01T14:23:13.648Z,52.40
2018-06-01T14:25:42.920Z,53.70
2018-06-01T14:28:11.242Z,53.60
2018-06-01T14:30:39.629Z,52.10
2018-06-01T14:33:08.246Z,52.90
2018-06-01T14:35:36.524Z,52.20
2018-06-01T14:38:04.849Z,51.30
2018-06-01T14:40:33.216Z,51.10
2018-06-01T14:43:01.519Z,50.30
2018-06-01T14:45:29.857Z,50.00
2018-06-01T14:47:58.172Z,49.20
2018-06-01T14:50:26.524Z,48.10
2018-06-01T14:52:54.821Z,46.50
2018-06-01T14:55:23.154Z,46.20
2018-06-01T14:57:51.660Z,46.40
2018-06-01T15:00:20.191Z,46.90
2018-06-01T15:02:48.502Z,48.10
2018-06-01T15:05:16.841Z,49.90
2018-06-01T15:07:45.322Z,50.80
2018-06-01T15:10:13.799Z,52.00
2018-06-01T15:12:42.118Z,54.90
2018-06-01T15:15:10.497Z,57.40
2018-06-01T15:17:38.776Z,58.40
2018-06-01T15:20:07.102Z,60.30
2018-06-01T15:22:35.391Z,61.70
2018-06-01T15:25:03.739Z,63.20
2018-06-01T15:27:32.201Z,63.90
2018-06-01T15:30:00.701Z,63.50
2018-06-01T15:32:29.820Z,63.70
2018-06-01T15:34:58.151Z,63.70
2018-06-01T15:37:26.543Z,63.00
2018-06-01T15:39:54.864Z,62.70
2018-06-01T15:42:23.150Z,63.60
2018-06-01T15:44:51.438Z,64.80
2018-06-01T15:47:19.757Z,65.40
2018-06-01T15:49:48.054Z,65.30
2018-06-01T15:52:16.473Z,65.20
2018-06-01T15:54:44.771Z,65.80
2018-06-01T15:57:13.053Z,66.50
2018-06-01T15:59:43.193Z,67.00
2018-06-01T16:02:11.750Z,67.60
2018-06-01T16:04:40.411Z,68.40
2018-06-01T16:07:09.072Z,69.00
2018-06-01T16:09:37.937Z,69.50
2018-06-01T16:12:06.335Z,69.80
2018-06-01T16:14:34.623Z,70.10
2018-06-01T16:17:02.947Z,70.40
2018-06-01T16:19:31.223Z,70.80
2018-06-01T16:21:59.581Z,68.80
2018-06-01T16:24:27.910Z,66.90
2018-06-01T16:26:56.989Z,65.60
2018-06-01T16:29:25.340Z,65.50
2018-06-01T16:31:58.592Z,63.10
2018-06-01T16:34:27.626Z,63.00
2018-06-01T16:36:55.949Z,63.20
2018-06-01T16:39:25.154Z,62.20
2018-06-01T16:41:53.457Z,61.80
2018-06-01T16:44:21.857Z,62.30
2018-06-01T16:46:50.149Z,63.00
2018-06-01T16:49:18.437Z,63.10
2018-06-01T16:51:46.768Z,62.70
2018-06-01T16:54:15.066Z,63.10
2018-06-01T16:56:43.766Z,64.70
2018-06-01T16:59:12.056Z,65.00
2018-06-01T17:01:40.398Z,65.70
2018-06-01T17:04:08.686Z,66.30
2018-06-01T17:06:36.978Z,66.30
2018-06-01T17:09:06.199Z,67.00
2018-06-01T17:11:34.598Z,69.40
2018-06-01T17:14:02.899Z,75.20
2018-06-01T17:16:31.266Z,83.60
2018-06-01T17:18:59.621Z,90.00
2018-06-01T17:21:27.953Z,92.90
2018-06-01T17:23:57.020Z,96.70
2018-06-01T17:26:25.337Z,96.60
2018-06-01T17:28:53.740Z,97.50
2018-06-01T17:31:22.072Z,97.90
2018-06-01T17:33:50.449Z,98.20
2018-06-01T17:36:18.746Z,98.00
2018-06-01T17:38:47.094Z,98.20
2018-06-01T17:41:16.178Z,98.50
2018-06-01T17:43:44.590Z,98.40
2018-06-01T17:46:12.914Z,99.00
2018-06-01T17:48:41.981Z,99.10
2018-06-01T17:51:10.358Z,99.10
2018-06-01T17:53:38.713Z,98.90
2018-06-01T17:56:07.039Z,98.60
2018-06-01T17:58:36.096Z,98.70
2018-06-01T18:01:04.393Z,98.70
2018-06-01T18:03:32.741Z,98.60
2018-06-01T18:06:01.058Z,98.70
2018-06-01T18:08:29.389Z,98.70
2018-06-01T18:10:58.478Z,98.20
2018-06-01T18:13:26.768Z,98.20
2018-06-01T18:15:55.367Z,98.50
2018-06-01T18:18:23.651Z,97.60
2018-06-01T18:20:51.982Z,96.70
2018-06-01T18:23:20.597Z,96.20
2018-06-01T18:25:48.885Z,95.80
2018-06-01T18:28:17.193Z,95.40
2018-06-01T18:30:45.601Z,95.10
2018-06-01T18:33:13.909Z,95.80
2018-06-01T18:35:42.299Z,95.40
2018-06-01T18:38:10.623Z,95.30
2018-06-01T18:40:38.940Z,96.30
2018-06-01T18:43:08.034Z,95.00
2018-06-01T18:45:36.329Z,95.00
2018-06-01T18:48:04.617Z,95.30
2018-06-01T18:50:33.132Z,95.60
2018-06-01T18:53:01.499Z,96.00
2018-06-01T18:55:29.818Z,95.60
2018-06-01T18:57:58.289Z,95.30
2018-06-01T19:00:27.333Z,95.90
2018-06-01T19:02:55.618Z,95.90
2018-06-01T19:05:24.691Z,95.20
2018-06-01T19:07:53.093Z,95.20
2018-06-01T19:10:21.410Z,95.70
2018-06-01T19:12:49.735Z,96.60
2018-06-01T19:15:18.789Z,96.30
2018-06-01T19:17:47.418Z,96.30
2018-06-01T19:20:15.777Z,96.70
2018-06-01T19:22:44.940Z,96.40
2018-06-01T19:25:13.558Z,96.40
2018-06-01T19:27:42.057Z,96.30
2018-06-01T19:30:11.166Z,96.10
2018-06-01T19:32:39.491Z,96.10
2018-06-01T19:35:07.816Z,95.90
2018-06-01T19:37:36.151Z,96.90
2018-06-01T19:40:04.460Z,97.00
2018-06-01T19:42:32.797Z,97.10
2018-06-01T19:45:01.271Z,96.50
2018-06-01T19:47:29.657Z,96.40
2018-06-01T19:49:58.761Z,96.70
2018-06-01T19:52:27.970Z,97.30
2018-06-01T19:54:57.055Z,96.40
2018-06-01T19:57:25.386Z,96.40
2018-06-01T19:59:53.900Z,96.40
2018-06-01T20:02:22.289Z,96.70
2018-06-01T20:04:50.591Z,96.60
2018-06-01T20:07:18.994Z,96.70
2018-06-01T20:09:47.434Z,97.00
2018-06-01T20:12:16.566Z,96.80
2018-06-01T20:14:44.914Z,96.70
2018-06-01T20:17:14.166Z,96.90
2018-06-01T20:19:42.574Z,96.50
2018-06-01T20:22:11.698Z,97.70
2018-06-01T20:24:40.041Z,97.70
2018-06-01T20:27:08.376Z,97.40
2018-06-01T20:29:36.696Z,97.90
2018-06-01T20:32:05.776Z,98.20
2018-06-01T20:34:34.120Z,98.20
2018-06-01T20:37:03.973Z,98.40
2018-06-01T20:39:33.128Z,98.20
2018-06-01T20:42:01.652Z,98.10
2018-06-01T20:44:29.968Z,98.20
2018-06-01T20:46:58.297Z,98.20
2018-06-01T20:49:27.370Z,98.50
2018-06-01T20:51:55.684Z,98.30
2018-06-01T20:54:24.028Z,98.40
2018-06-01T20:56:53.299Z,98.40
2018-06-01T20:59:21.625Z,98.40
2018-06-01T21:01:49.918Z,98.30
2018-06-01T21:04:18.232Z,98.50
2018-06-01T21:06:46.659Z,98.40
2018-06-01T21:09:15.769Z,98.50
2018-06-01T21:11:45.061Z,98.50
2018-06-01T21:14:13.440Z,98.70
2018-06-01T21:16:42.232Z,99.00
2018-06-01T21:19:11.318Z,99.40
2018-06-01T21:21:39.630Z,99.40
2018-06-01T21:24:08.222Z,99.30
2018-06-01T21:26:36.526Z,99.20
2018-06-01T21:29:04.915Z,99.40
2018-06-01T21:31:33.341Z,99.30
2018-06-01T21:34:01.648Z,99.40
2018-06-01T21:36:30.045Z,99.20
2018-06-01T21:38:58.466Z,99.30
2018-06-01T21:41:26.789Z,99.40
2018-06-01T21:43:55.969Z,99.70
2018-06-01T21:46:24.297Z,99.70
2018-06-01T21:48:52.677Z,99.50
2018-06-01T21:51:21.066Z,99.60
2018-06-01T21:53:49.589Z,99.80
2018-06-01T21:56:17.890Z,99.90
2018-06-01T21:58:46.216Z,99.60
2018-06-01T22:01:15.588Z,99.80
2018-06-01T22:03:44.706Z,99.20
2018-06-01T22:06:14.006Z,99.20
2018-06-01T22:08:42.461Z,99.20
2018-06-01T22:11:10.854Z,99.40
2018-06-01T22:13:39.261Z,99.80
2018-06-01T22:16:07.552Z,99.90
2018-06-01T22:18:36.286Z,99.90
2018-06-01T22:21:04.573Z,99.90
2018-06-01T22:23:32.898Z,99.70
2018-06-01T22:26:01.220Z,99.70
2018-06-01T22:28:29.557Z,99.60
2018-06-01T22:30:57.921Z,99.90
2018-06-01T22:33:27.749Z,99.90
2018-06-01T22:35:56.049Z,99.90
2018-06-01T22:38:24.373Z,99.90
2018-06-01T22:40:52.669Z,99.90
2018-06-01T22:43:21.059Z,99.80
2018-06-01T22:45:49.376Z,99.90
2018-06-01T22:48:17.974Z,99.90
2018-06-01T22:50:46.285Z,99.80
2018-06-01T22:53:14.779Z,99.90
2018-06-01T22:55:43.966Z,99.80
2018-06-01T22:58:12.409Z,99.60
2018-06-01T23:00:41.641Z,99.40
2018-06-01T23:03:09.746Z,99.30
2018-06-01T23:05:39.133Z,99.60
2018-06-01T23:08:07.449Z,99.60
2018-06-01T23:10:36.781Z,99.70
2018-06-01T23:13:05.110Z,99.70
2018-06-01T23:15:33.519Z,99.70
2018-06-01T23:18:02.581Z,99.70
2018-06-01T23:20:30.945Z,99.70
2018-06-01T23:23:01.153Z,99.70
2018-06-01T23:25:30.352Z,99.90
2018-06-01T23:27:58.642Z,99.90
2018-06-01T23:30:26.978Z,99.90
2018-06-01T23:32:55.597Z,99.90
2018-06-01T23:35:23.933Z,99.80
2018-06-01T23:37:53.004Z,99.30
2018-06-01T23:40:21.309Z,99.30
2018-06-01T23:42:49.633Z,99.30
2018-06-01T23:45:17.968Z,99.40
2018-06-01T23:47:47.097Z,99.10
2018-06-01T23:50:15.453Z,99.10
2018-06-01T23:52:43.832Z,99.10
2018-06-01T23:55:12.157Z,99.40
2018-06-01T23:57:40.497Z,99.40
